Time;durP1;ratioP1;P1;durP2;ratioP2;P2;SDS_P1;SDS_P2;PMS_P1;PMS_P2;Temp;Humidity;BMP_temperature;BMP_pressure;BME280_temperature;BME280_humidity;BME280_pressure;Samples;Min_cycle;Max_cycle;Signal;HPM_P1;HPM_P2
2022/01/07 00:01:33;;;;;;;20.37;15.65;;;;;;;15.59;50.65;101171.50;144992;611;6004;-91
2022/01/07 00:04:18;;;;;;;20.45;14.48;;;;;;;15.59;50.09;101178.47;144992;571;6004;-88
2022/01/07 00:06:54;;;;;;;20.05;14.05;;;;;;;15.55;50.95;101177.53;144992;609;6004;-88
2022/01/07 00:09:54;;;;;;;17.98;13.65;;;;;;;15.55;50.45;101180.13;144991;595;6000;-87
2022/01/07 00:12:29;;;;;;;18.60;12.75;;;;;;;15.56;50.99;101188.88;144991;572;6000;-91
2022/01/07 00:15:06;;;;;;;17.50;12.70;;;;;;;15.55;50.45;101180.13;144992;637;6002;-82
2022/01/07 00:17:47;;;;;;;16.50;12.37;;;;;;;15.52;50.75;101185.31;144992;596;6002;-89
2022/01/07 00:20:38;;;;;;;18.67;12.23;;;;;;;15.51;51.19;101185.28;144992;641;6004;-89
2022/01/07 00:23:41;;;;;;;16.80;11.57;;;;;;;15.52;51.15;101192.28;144992;563;6004;-88
2022/01/07 00:26:22;;;;;;;17.85;13.02;;;;;;;15.49;50.80;101198.34;144992;666;6004;-87
2022/01/07 00:29:08;;;;;;;17.52;14.13;;;;;;;15.48;50.59;101193.06;144992;567;6004;-87
2022/01/07 00:31:59;;;;;;;19.33;13.93;;;;;;;15.47;50.83;101189.59;144992;597;6004;-88
2022/01/07 00:34:56;;;;;;;18.35;14.70;;;;;;;15.47;50.90;101192.22;144992;689;6004;-87
2022/01/07 00:38:09;;;;;;;22.08;16.42;;;;;;;15.45;50.70;101185.22;144992;615;6003;-86
2022/01/07 00:40:43;;;;;;;21.58;15.93;;;;;;;15.45;50.84;101195.69;144992;625;6004;-88
2022/01/07 00:43:17;;;;;;;22.15;16.60;;;;;;;15.45;51.29;101193.06;144992;567;6004;-89
2022/01/07 00:46:07;;;;;;;24.00;17.95;;;;;;;15.44;50.92;101196.53;144992;571;6004;-88
2022/01/07 00:48:58;;;;;;;21.67;16.55;;;;;;;15.41;51.44;101203.47;144992;597;6004;-87
2022/01/07 00:51:37;;;;;;;23.05;15.60;;;;;;;15.39;51.45;101205.16;144992;566;6004;-83
2022/01/07 01:38:12;;;;;;;15.50;11.40;;;;;;;15.24;51.84;101195.31;144992;580;6002;-82
2022/01/07 01:41:06;;;;;;;15.70;11.38;;;;;;;15.26;51.70;101192.72;144992;576;6002;-81
2022/01/07 01:43:59;;;;;;;;;;;;;;;15.26;51.37;101191.84;144997;907;6004;-85
2022/01/07 01:46:48;;;;;;;14.45;11.95;;;;;;;15.26;51.18;101178.78;144997;619;6000;-86
2022/01/07 01:49:34;;;;;;;;;;;;;;;;;;;;;
2022/01/07 01:52:28;;;;;;;16.98;12.60;;;;;;;15.23;51.27;101179.59;144992;707;6004;-81
2022/01/07 01:54:58;;;;;;;17.83;13.70;;;;;;;15.21;51.47;101178.69;144992;577;6004;-91
2022/01/07 01:57:28;;;;;;;19.10;13.23;;;;;;;15.20;51.93;101179.53;144992;583;6004;-91
2022/01/07 02:00:01;;;;;;;18.12;12.63;;;;;;;15.17;51.50;101177.72;144992;685;6004;-81
2022/01/07 02:02:40;;;;;;;19.20;13.60;;;;;;;15.16;51.44;101178.59;144992;566;6002;-83
2022/01/07 02:05:17;;;;;;;17.58;12.75;;;;;;;15.17;51.66;101187.31;144992;587;6002;-91
2022/01/07 02:10:44;;;;;;;17.42;13.00;;;;;;;15.14;51.78;101180.28;144992;569;6002;-87
2022/01/07 03:07:35;;;;;;;;;;;;;;;14.86;52.72;101192.84;144997;926;6002;-82
2022/01/07 03:10:38;;;;;;;9.88;6.80;;;;;;;14.85;52.79;101192.81;144997;911;6002;-87
2022/01/07 03:13:53;;;;;;;10.23;6.45;;;;;;;14.86;52.62;101197.19;144992;594;6004;-83
2022/01/07 03:16:43;;;;;;;8.80;6.75;;;;;;;14.87;52.62;101204.16;144992;599;6004;-81
2022/01/07 03:19:55;;;;;;;10.25;7.97;;;;;;;14.91;52.63;101210.37;144992;566;6004;-87
2022/01/07 03:28:14;;;;;;;12.25;8.32;;;;;;;14.91;52.39;101199.91;144992;617;6002;-81
2022/01/07 03:30:50;;;;;;;13.10;8.27;;;;;;;14.87;52.87;101199.84;144992;584;6004;-83
2022/01/07 03:33:41;;;;;;;12.85;8.88;;;;;;;14.88;52.49;101201.59;144992;627;6004;-83
2022/01/07 03:36:08;;;;;;;13.55;9.63;;;;;;;14.86;52.85;101200.69;144992;743;6003;-86
2022/01/07 03:38:38;;;;;;;14.05;9.23;;;;;;;14.85;52.59;101196.31;144992;816;6002;-82
2022/01/07 03:41:11;;;;;;;12.48;8.50;;;;;;;14.85;52.67;101200.66;144992;587;6002;-87
2022/01/07 03:43:56;;;;;;;12.13;9.15;;;;;;;14.82;52.38;101198.84;144992;644;6003;-92
2022/01/07 03:46:28;;;;;;;13.02;9.10;;;;;;;14.81;52.58;101189.28;144992;593;6002;-83
2022/01/07 03:49:03;;;;;;;13.35;9.32;;;;;;;14.80;52.67;101197.94;144992;736;6002;-82
2022/01/07 03:56:37;;;;;;;10.90;6.68;;;;;;;14.78;52.43;101203.97;144992;815;6002;-81
2022/01/07 03:59:05;;;;;;;11.12;6.70;;;;;;;14.78;52.82;101210.13;144992;603;6002;-91
2022/01/07 04:01:34;;;;;;;13.80;8.20;;;;;;;14.76;52.19;101211.81;144992;566;6002;-82
2022/01/07 04:04:05;;;;;;;7.68;5.75;;;;;;;14.75;52.56;101212.66;144992;578;6002;-82
2022/01/07 04:06:35;;;;;;;9.27;6.20;;;;;;;14.71;52.51;101213.44;144992;565;6002;-93
2022/01/07 04:09:21;;;;;;;8.48;5.57;;;;;;;14.69;52.51;101216.00;144992;655;6002;-81
2022/01/07 04:35:09;;;;;;;8.32;5.15;;;;;;;14.53;52.77;101240.03;144992;642;6003;-92
2022/01/07 04:37:35;;;;;;;7.03;4.97;;;;;;;14.51;53.02;101240.00;144992;577;6002;-91
2022/01/07 04:40:05;;;;;;;10.45;5.80;;;;;;;14.51;53.25;101250.44;144992;625;6002;-91
2022/01/07 04:42:35;;;;;;;9.68;5.25;;;;;;;14.49;53.72;101249.53;144992;630;6003;-91
2022/01/07 04:45:03;;;;;;;8.63;5.30;;;;;;;14.51;53.37;101249.56;144991;645;6002;-91
2022/01/07 04:47:32;;;;;;;7.62;5.07;;;;;;;14.53;53.65;101253.09;144991;569;6002;-90
2022/01/07 04:50:02;;;;;;;9.18;5.40;;;;;;;14.51;53.68;101249.56;144992;566;6009;-91
2022/01/07 04:52:44;;;;;;;9.38;5.47;;;;;;;14.51;53.47;101254.78;144992;596;6011;-89
2022/01/07 04:55:20;;;;;;;10.98;4.97;;;;;;;14.49;53.69;101254.75;144991;569;6002;-93
2022/01/07 04:57:48;;;;;;;9.15;5.50;;;;;;;14.51;53.24;101258.28;144992;567;6002;-89
2022/01/07 05:00:17;;;;;;;7.82;5.45;;;;;;;14.51;53.62;101260.91;144992;615;6002;-92
2022/01/07 05:02:45;;;;;;;10.70;5.68;;;;;;;14.50;53.28;101266.09;144992;565;6002;-91
2022/01/07 05:05:12;;;;;;;9.48;6.60;;;;;;;14.48;53.47;101265.19;144992;573;6002;-90
2022/01/07 05:07:43;;;;;;;9.23;6.30;;;;;;;14.47;53.78;101259.03;144992;564;6002;-92
2022/01/07 05:10:14;;;;;;;11.50;6.60;;;;;;;14.47;53.61;101266.00;144992;595;6002;-91
2022/01/07 05:12:43;;;;;;;11.18;6.53;;;;;;;14.46;53.32;101267.75;144991;576;6002;-80
2022/01/07 05:15:23;;;;;;;10.90;6.00;;;;;;;14.46;53.49;101270.38;144992;614;6002;-83
2022/01/07 05:17:52;;;;;;;10.30;6.45;;;;;;;14.43;53.74;101272.91;144992;640;6002;-90
2022/01/07 05:20:21;;;;;;;12.50;7.70;;;;;;;14.43;53.67;101272.91;144992;623;6002;-90
2022/01/07 05:23:02;;;;;;;12.80;7.82;;;;;;;14.44;53.50;101266.81;144992;587;6002;-85
2022/01/07 05:25:34;;;;;;;12.32;7.07;;;;;;;14.46;53.75;101272.97;144991;598;6002;-90
2022/01/07 05:28:01;;;;;;;12.60;7.95;;;;;;;14.43;53.57;101270.28;144992;585;6002;-91
2022/01/07 05:30:27;;;;;;;10.23;7.50;;;;;;;14.43;53.60;101277.25;144992;655;6002;-90
2022/01/07 05:32:59;;;;;;;10.38;7.22;;;;;;;14.43;53.60;101279.88;144992;566;6002;-92
2022/01/07 05:35:26;;;;;;;10.95;7.12;;;;;;;14.42;53.84;101278.97;144991;609;6002;-86
2022/01/07 05:37:52;;;;;;;13.75;7.60;;;;;;;14.41;53.37;101274.63;144992;591;6002;-91
2022/01/07 05:40:19;;;;;;;14.25;8.82;;;;;;;14.40;53.66;101275.44;144993;583;6002;-94
2022/01/07 05:42:46;;;;;;;13.73;7.97;;;;;;;14.42;53.34;101283.31;144993;734;6003;-94
2022/01/07 05:45:14;;;;;;;16.00;9.70;;;;;;;14.41;53.46;101282.44;144993;581;6002;-92
2022/01/07 05:47:41;;;;;;;22.60;11.05;;;;;;;14.42;53.38;101283.31;144993;599;6002;-92
2022/01/07 05:50:09;;;;;;;16.80;11.90;;;;;;;14.40;53.46;101285.91;144993;633;6003;-90
2022/01/07 05:52:36;;;;;;;14.48;10.98;;;;;;;14.39;53.36;101288.47;144993;636;6002;-90
2022/01/07 05:55:05;;;;;;;21.45;12.13;;;;;;;14.39;53.73;101286.72;144993;638;6002;-93
2022/01/07 05:57:32;;;;;;;19.42;11.90;;;;;;;14.38;53.57;101287.59;144993;656;6002;-89
2022/01/07 06:00:01;;;;;;;16.58;11.88;;;;;;;14.38;53.78;101289.31;144993;570;6002;-87
2022/01/07 06:02:27;;;;;;;15.55;11.55;;;;;;;14.36;53.60;101283.19;144993;605;6002;-92
2022/01/07 06:04:55;;;;;;;15.02;11.50;;;;;;;14.35;53.43;101282.31;144993;586;6002;-90
2022/01/07 06:07:21;;;;;;;17.95;12.68;;;;;;;14.36;53.53;101289.28;144993;602;6002;-92
2022/01/07 06:09:59;;;;;;;19.12;9.88;;;;;;;14.35;53.31;101287.53;144993;583;6002;-83
2022/01/07 06:12:43;;;;;;;;;;;;;;;;;;;;;
2022/01/07 06:15:17;;;;;;;13.43;6.95;;;;;;;14.35;52.99;101284.91;144992;601;6000;-91
2022/01/07 06:17:51;;;;;;;8.38;5.55;;;;;;;14.35;53.29;101282.31;144992;686;6000;-90
2022/01/07 06:20:19;;;;;;;11.82;6.47;;;;;;;14.36;53.64;101289.28;144992;610;6000;-86
2022/01/07 06:22:48;;;;;;;12.52;7.12;;;;;;;14.38;53.49;101291.91;144992;608;6000;-89
2022/01/07 06:25:18;;;;;;;10.13;6.97;;;;;;;14.46;53.27;101291.25;144993;571;6000;-88
2022/01/07 06:27:45;;;;;;;10.75;6.30;;;;;;;14.81;53.16;101290.28;144993;586;6002;-90
2022/01/07 06:30:12;;;;;;;10.60;5.90;;;;;;;15.34;52.68;101289.66;144993;614;6002;-92
2022/01/07 06:32:39;;;;;;;10.02;5.85;;;;;;;15.95;51.47;101301.25;144993;590;6002;-91
2022/01/07 06:35:07;;;;;;;10.73;5.70;;;;;;;16.56;51.18;101296.94;144992;616;6002;-91
2022/01/07 06:37:34;;;;;;;11.93;6.60;;;;;;;17.01;50.57;101296.72;144993;591;6002;-90
2022/01/07 06:40:04;;;;;;;12.23;7.47;;;;;;;17.31;49.74;101303.19;144993;601;6002;-93
2022/01/07 06:42:34;;;;;;;12.48;7.00;;;;;;;17.62;49.39;101305.25;144993;643;6002;-91
2022/01/07 06:45:06;;;;;;;9.82;6.45;;;;;;;17.89;48.93;101308.16;144993;624;6002;-91
2022/01/07 06:47:33;;;;;;;11.95;6.68;;;;;;;18.15;48.63;101304.91;144993;577;6002;-87
2022/01/07 06:52:30;;;;;;;15.07;8.93;;;;;;;18.47;48.24;101313.00;144993;658;6002;-90
2022/01/07 06:54:59;;;;;;;17.75;11.32;;;;;;;18.61;48.35;101309.59;144993;586;6002;-83
2022/01/07 07:02:32;;;;;;;16.70;8.45;;;;;;;19.16;47.43;101320.41;144993;583;6002;-92
2022/01/07 07:05:00;;;;;;;14.80;8.57;;;;;;;19.36;47.19;101327.53;144993;729;6002;-92
2022/01/07 07:08:33;;;;;;;;;;;;;;;;;;;;;
2022/01/07 07:11:22;;;;;;;16.08;10.07;;;;;;;19.73;45.88;101324.97;144994;566;5004;-91
2022/01/07 07:13:49;;;;;;;14.15;9.52;;;;;;;19.87;45.64;101319.75;144994;586;5004;-92
2022/01/07 07:16:26;;;;;;;14.10;9.40;;;;;;;20.05;44.92;101330.28;144994;584;5004;-84
2022/01/07 07:18:53;;;;;;;13.23;8.57;;;;;;;20.22;44.43;101327.66;144994;575;5004;-90
2022/01/07 07:21:22;;;;;;;13.85;9.98;;;;;;;20.33;43.98;101325.03;144994;568;5004;-92
2022/01/07 07:23:48;;;;;;;14.73;8.95;;;;;;;20.45;44.07;101337.31;144994;578;5004;-91
2022/01/07 07:26:17;;;;;;;13.80;9.43;;;;;;;20.58;43.67;101339.03;144994;602;5005;-93
2022/01/07 07:28:45;;;;;;;11.73;8.82;;;;;;;20.68;43.44;101339.03;144994;588;5004;-91
2022/01/07 07:31:15;;;;;;;17.95;8.85;;;;;;;20.78;43.15;101335.53;144994;611;5004;-91
2022/01/07 07:36:34;;;;;;;13.35;7.10;;;;;;;20.94;42.67;101337.22;144994;589;5002;-93
2022/01/07 07:39:10;;;;;;;11.70;6.70;;;;;;;20.99;42.94;101340.72;144994;607;5002;-94
2022/01/07 07:41:39;;;;;;;9.10;6.30;;;;;;;21.08;42.30;101329.25;144994;627;5003;-93
2022/01/07 07:44:09;;;;;;;10.45;6.40;;;;;;;21.18;42.15;101327.44;144994;572;5002;-86
2022/01/07 07:46:40;;;;;;;9.80;6.30;;;;;;;21.27;42.29;101332.69;144994;646;5002;-91
2022/01/07 07:49:44;;;;;;;10.18;6.93;;;;;;;21.33;42.26;101343.22;144994;570;5003;-82
2022/01/07 07:53:01;;;;;;;13.27;8.07;;;;;;;21.38;41.89;101349.38;144994;669;5004;-92
2022/01/07 07:56:18;;;;;;;14.15;7.65;;;;;;;21.45;41.81;101347.56;144994;733;5004;-95
2022/01/07 08:03:56;;;;;;;15.05;10.35;;;;;;;21.73;41.02;101344.81;144994;586;5002;-93
2022/01/07 08:06:23;;;;;;;14.32;10.60;;;;;;;21.89;40.94;101345.56;144993;583;5002;-92
2022/01/07 08:08:53;;;;;;;17.83;10.38;;;;;;;22.00;40.28;101354.31;144994;651;5002;-87
2022/01/07 08:11:48;;;;;;;18.05;10.30;;;;;;;22.09;40.22;101356.84;144994;577;5002;-88
2022/01/07 08:17:58;;;;;;;18.15;12.07;;;;;;;22.34;40.18;101366.41;144994;644;5004;-86
2022/01/07 08:28:22;;;;;;;17.37;11.57;;;;;;;22.59;39.69;101359.13;144994;654;5002;-94
2022/01/07 08:31:22;;;;;;;14.50;11.52;;;;;;;22.63;39.91;101366.13;144994;646;5002;-91
2022/01/07 08:36:21;;;;;;;13.20;8.00;;;;;;;22.77;40.28;101368.63;144994;659;5002;-91
2022/01/07 08:39:04;;;;;;;13.23;8.80;;;;;;;22.82;40.67;101372.97;144994;663;5002;-93
2022/01/07 08:41:56;;;;;;;13.07;9.75;;;;;;;22.83;40.96;101371.22;144994;595;5002;-86
2022/01/07 08:44:26;;;;;;;16.62;11.77;;;;;;;22.77;41.08;101364.22;144994;567;5002;-83
2022/01/07 08:47:23;;;;;;;13.62;10.05;;;;;;;22.79;40.99;101369.47;144994;611;5002;-81
2022/01/07 08:50:11;;;;;;;12.82;9.95;;;;;;;22.76;41.64;101365.09;144994;605;5002;-85
2022/01/07 08:52:46;;;;;;;12.13;9.88;;;;;;;22.70;42.03;101366.94;144994;564;5002;-83
2022/01/07 08:55:23;;;;;;;13.35;9.23;;;;;;;22.73;41.61;101364.25;144994;634;5002;-93
2022/01/07 08:57:49;;;;;;;11.70;9.52;;;;;;;22.70;42.14;101364.28;144994;570;5002;-84
2022/01/07 09:00:44;;;;;;;11.70;9.00;;;;;;;22.65;42.17;101359.03;144994;662;5002;-86
2022/01/07 09:03:36;;;;;;;14.02;9.32;;;;;;;22.05;43.18;101362.19;144994;581;5002;-85
2022/01/07 09:06:20;;;;;;;11.48;9.05;;;;;;;21.00;45.30;101360.09;144994;581;5004;-82
2022/01/07 09:09:25;;;;;;;11.93;9.30;;;;;;;21.42;44.57;101355.50;144994;567;5004;-81
2022/01/07 09:12:07;;;;;;;15.63;12.63;;;;;;;21.45;44.73;101362.53;144994;640;5002;-83
2022/01/07 09:15:14;;;;;;;11.43;9.57;;;;;;;21.52;44.78;101353.72;144994;576;5002;-84
2022/01/07 09:17:43;;;;;;;12.68;9.40;;;;;;;21.53;44.79;101363.41;144994;580;5002;-92
2022/01/07 09:21:09;;;;;;;11.15;8.95;;;;;;;21.44;44.81;101355.50;144994;588;5002;-82
2022/01/07 09:24:19;;;;;;;;;;;;;;;;;;;;;
2022/01/07 09:26:55;;;;;;;10.68;7.40;;;;;;;21.39;45.51;101355.50;144994;620;5002;-84
2022/01/07 09:29:38;;;;;;;14.38;10.20;;;;;;;21.14;45.95;101342.44;144994;563;5002;-83
2022/01/07 09:35:40;;;;;;;11.55;9.90;;;;;;;20.88;46.28;101345.16;144994;594;5002;-82
2022/01/07 09:38:30;;;;;;;13.68;9.48;;;;;;;20.75;46.74;101335.53;144993;565;5002;-93
2022/01/07 09:40:57;;;;;;;13.55;8.63;;;;;;;20.67;46.95;101339.94;144994;605;5003;-92
2022/01/07 09:44:03;;;;;;;13.45;8.82;;;;;;;20.34;47.72;101339.94;144994;734;5002;-81
2022/01/07 09:46:54;;;;;;;13.40;8.18;;;;;;;19.36;50.75;101341.56;144994;561;5004;-82
2022/01/07 09:49:43;;;;;;;13.38;10.18;;;;;;;19.36;49.65;101330.16;144994;569;5002;-79
2022/01/07 09:52:24;;;;;;;13.10;10.10;;;;;;;19.44;49.48;101323.16;144994;590;5002;-80
2022/01/07 09:55:18;;;;;;;12.63;8.82;;;;;;;19.52;49.41;101331.06;144994;626;5002;-84
2022/01/07 09:57:54;;;;;;;12.57;7.35;;;;;;;19.52;49.65;101316.16;144994;577;5002;-82
2022/01/07 10:00:20;;;;;;;10.10;7.65;;;;;;;19.56;49.07;101317.88;144994;588;5002;-90
2022/01/07 10:03:04;;;;;;;12.57;8.38;;;;;;;19.58;49.08;101310.00;144994;668;5002;-93
2022/01/07 10:05:31;;;;;;;12.20;8.32;;;;;;;19.26;50.17;101312.56;144994;588;5002;-89
2022/01/07 10:08:17;;;;;;;11.15;8.18;;;;;;;18.67;52.57;101309.62;144994;580;5002;-91
2022/01/07 10:10:53;;;;;;;11.48;8.50;;;;;;;18.92;50.81;101312.44;144994;606;5002;-88
2022/01/07 10:13:20;;;;;;;12.23;8.57;;;;;;;18.94;50.39;101311.53;144994;596;5002;-89
2022/01/07 10:15:46;;;;;;;12.18;7.85;;;;;;;18.94;50.63;101308.03;144993;594;5002;-89
2022/01/07 10:18:16;;;;;;;11.75;8.32;;;;;;;18.93;50.69;101309.81;144994;632;5002;-91
2022/01/07 10:21:08;;;;;;;10.30;7.35;;;;;;;18.85;51.36;101307.13;144994;587;5002;-92
2022/01/07 10:23:44;;;;;;;8.07;6.68;;;;;;;18.82;50.75;101314.97;144994;602;5002;-90
2022/01/07 10:26:29;;;;;;;11.20;6.87;;;;;;;18.79;50.75;101306.19;144994;633;5002;-93
2022/01/07 10:28:55;;;;;;;9.13;7.18;;;;;;;18.82;50.96;101307.09;144994;623;5002;-83
2022/01/07 10:31:24;;;;;;;10.45;6.72;;;;;;;18.83;50.83;101308.84;144994;575;5002;-91
2022/01/07 10:34:21;;;;;;;8.25;7.15;;;;;;;18.88;50.75;101302.75;144994;584;5002;-91
2022/01/07 10:36:51;;;;;;;10.65;6.72;;;;;;;18.91;50.48;101294.87;144994;619;5004;-92
2022/01/07 10:39:33;;;;;;;8.50;6.75;;;;;;;18.95;50.58;101294.03;144994;578;5004;-91
2022/01/07 10:42:00;;;;;;;9.23;6.35;;;;;;;18.96;50.78;101303.66;144994;578;5004;-89
2022/01/07 10:44:32;;;;;;;8.63;6.28;;;;;;;18.96;50.95;101291.41;144994;567;5004;-94
2022/01/07 10:47:06;;;;;;;9.88;6.50;;;;;;;18.97;50.83;101293.16;144993;624;5004;-89
2022/01/07 10:49:39;;;;;;;11.43;7.97;;;;;;;19.02;50.74;101290.53;144994;588;5002;-92
2022/01/07 10:52:24;;;;;;;12.75;8.43;;;;;;;19.06;50.63;101287.06;144994;601;5002;-92
2022/01/07 10:55:32;;;;;;;13.68;9.05;;;;;;;18.83;52.42;101285.19;144994;583;5002;-88
2022/01/07 10:58:04;;;;;;;12.32;6.45;;;;;;;18.82;51.29;101274.66;144994;572;5004;-91
2022/01/07 11:00:42;;;;;;;11.40;6.30;;;;;;;18.90;51.24;101286.12;144994;587;5004;-83
2022/01/07 11:03:34;;;;;;;;;;;;;;;;;;;;;
2022/01/07 11:06:05;;;;;;;11.55;7.05;;;;;;;19.05;51.07;101277.41;144994;643;5002;-90
2022/01/07 11:08:38;;;;;;;10.68;6.72;;;;;;;19.08;51.12;101277.41;144994;648;5002;-91
2022/01/07 11:11:15;;;;;;;9.35;7.03;;;;;;;19.17;51.29;101274.81;144994;602;5002;-90
2022/01/07 11:14:03;;;;;;;7.78;5.85;;;;;;;19.03;51.69;101274.75;144994;587;5002;-82
2022/01/07 11:16:31;;;;;;;11.20;6.78;;;;;;;19.07;51.19;101277.41;144994;588;5002;-83
2022/01/07 11:19:23;;;;;;;11.27;7.45;;;;;;;19.14;51.35;101272.16;144994;605;5002;-83
2022/01/07 11:21:57;;;;;;;10.15;6.78;;;;;;;19.19;52.55;101272.19;144994;613;5002;-91
2022/01/07 11:24:47;;;;;;;9.68;6.25;;;;;;;19.07;52.08;101280.91;144994;564;5002;-82
2022/01/07 11:27:26;;;;;;;11.45;6.78;;;;;;;19.26;51.58;101278.34;144994;595;5002;-91
2022/01/07 11:30:14;;;;;;;9.32;6.05;;;;;;;19.05;52.16;101269.50;144994;563;5002;-93
2022/01/07 11:32:49;;;;;;;10.63;5.22;;;;;;;18.88;52.26;101263.28;144994;581;5005;-91
2022/01/07 11:35:59;;;;;;;10.57;7.05;;;;;;;18.47;54.32;101260.44;144994;616;5004;-84
2022/01/07 11:39:00;;;;;;;7.87;5.70;;;;;;;18.53;54.08;101254.31;144994;584;5004;-84
2022/01/07 11:41:58;;;;;;;10.18;6.50;;;;;;;18.42;54.66;101253.38;144994;604;5004;-87
2022/01/07 11:44:28;;;;;;;9.85;6.47;;;;;;;18.31;55.14;101253.34;144994;582;5004;-91
2022/01/07 11:47:23;;;;;;;8.88;6.25;;;;;;;18.35;55.52;101249.84;144994;605;5004;-83
2022/01/07 11:50:06;;;;;;;10.05;7.45;;;;;;;17.68;59.33;101250.19;144994;634;5002;-90
2022/01/07 11:52:41;;;;;;;7.72;5.65;;;;;;;17.81;57.34;101249.41;144994;564;4567;-91
2022/01/07 11:55:19;;;;;;;;;;;;;;;18.02;56.33;101242.63;144998;911;4573;-91
2022/01/07 11:58:11;;;;;;;9.15;5.82;;;;;;;17.71;57.74;101250.22;144997;569;6002;-91
2022/01/07 12:00:59;;;;;;;8.07;6.30;;;;;;;17.46;59.19;101242.09;144992;580;6004;-82
2022/01/07 12:03:59;;;;;;;9.77;6.78;;;;;;;17.55;59.37;101236.06;144992;592;6004;-91
2022/01/07 12:06:50;;;;;;;7.85;6.25;;;;;;;17.54;57.96;101236.94;144992;577;6002;-91
2022/01/07 12:09:51;;;;;;;7.28;5.80;;;;;;;17.44;58.38;101229.84;144992;578;6004;-81
2022/01/07 12:12:35;;;;;;;8.45;5.97;;;;;;;17.37;59.69;101232.41;144992;575;6002;-91
2022/01/07 12:15:09;;;;;;;9.05;5.65;;;;;;;17.49;59.53;101226.37;144991;588;6002;-81
2022/01/07 12:17:36;;;;;;;9.35;6.28;;;;;;;17.49;58.55;101233.41;144992;592;6002;-94
2022/01/07 12:20:46;;;;;;;9.52;5.50;;;;;;;17.09;60.55;101231.22;144992;661;6002;-93
2022/01/07 12:23:22;;;;;;;9.93;6.20;;;;;;;16.79;61.66;101240.47;144992;607;6004;-92
2022/01/07 12:26:03;;;;;;;9.48;6.30;;;;;;;16.64;62.57;101235.03;144992;649;6004;-91
2022/01/07 12:29:05;;;;;;;11.30;6.20;;;;;;;17.13;59.60;101238.28;144992;562;6004;-85
2022/01/07 12:31:37;;;;;;;9.07;5.60;;;;;;;17.07;59.71;101232.97;144992;590;6002;-81
2022/01/07 12:34:07;;;;;;;9.73;5.85;;;;;;;17.13;58.98;101230.41;144992;607;6002;-90
2022/01/07 12:36:37;;;;;;;7.45;5.60;;;;;;;17.33;58.30;101235.00;144992;588;6002;-88
2022/01/07 12:39:09;;;;;;;7.80;5.90;;;;;;;17.11;60.30;101229.50;144992;586;6003;-91
2022/01/07 12:41:37;;;;;;;7.72;5.20;;;;;;;16.78;61.20;101229.94;144992;569;6002;-89
2022/01/07 12:44:14;;;;;;;7.93;5.30;;;;;;;17.16;58.41;101225.19;144991;596;6002;-89
2022/01/07 12:46:41;;;;;;;9.07;5.20;;;;;;;16.64;61.31;101232.41;144992;574;6003;-89
2022/01/07 12:49:09;;;;;;;9.18;5.70;;;;;;;16.21;62.78;101230.09;144992;587;6002;-91
2022/01/07 12:51:36;;;;;;;9.90;7.00;;;;;;;16.58;60.88;101227.97;144992;611;6002;-87
2022/01/07 12:54:06;;;;;;;9.45;5.90;;;;;;;16.73;59.59;101231.66;144992;563;6002;-87
2022/01/07 12:56:38;;;;;;;7.15;5.47;;;;;;;16.83;59.00;101225.62;144992;704;6002;-87
2022/01/07 12:59:19;;;;;;;8.35;5.85;;;;;;;16.92;58.57;101227.53;144992;605;6002;-88
2022/01/07 13:01:47;;;;;;;7.97;5.30;;;;;;;16.66;58.93;101231.56;144992;577;6002;-88
2022/01/07 13:04:23;;;;;;;8.55;5.60;;;;;;;16.88;58.06;101229.25;144992;596;6002;-86
2022/01/07 13:06:52;;;;;;;10.23;5.72;;;;;;;16.69;60.09;101236.84;144992;611;6002;-88
2022/01/07 13:09:30;;;;;;;8.50;5.62;;;;;;;16.63;59.45;101238.50;144992;608;6002;-91
2022/01/07 13:12:00;;;;;;;7.78;5.22;;;;;;;16.48;59.53;101231.31;144992;569;6002;-86
2022/01/07 13:14:28;;;;;;;7.45;5.25;;;;;;;16.55;59.61;101233.16;144992;578;6002;-93
2022/01/07 13:16:59;;;;;;;9.15;5.57;;;;;;;16.73;58.72;101227.28;144992;649;6002;-87
2022/01/07 13:19:27;;;;;;;8.43;4.95;;;;;;;16.90;57.68;101231.91;144992;575;6002;-91
2022/01/07 13:21:57;;;;;;;10.45;5.80;;;;;;;16.88;57.76;101234.50;144992;612;6002;-88
2022/01/07 13:24:43;;;;;;;9.95;7.45;;;;;;;17.05;57.16;101234.66;144992;632;6002;-86
2022/01/07 13:27:18;;;;;;;8.75;6.35;;;;;;;17.28;56.48;101231.44;144992;608;6002;-89
2022/01/07 13:29:49;;;;;;;6.15;4.50;;;;;;;16.85;58.01;101234.44;144992;595;6002;-89
2022/01/07 13:32:23;;;;;;;8.43;4.87;;;;;;;17.27;56.94;101230.53;144992;590;6002;-89
2022/01/07 13:34:51;;;;;;;6.70;4.62;;;;;;;17.41;56.18;101228.94;144991;632;6002;-89
2022/01/07 13:37:19;;;;;;;9.15;5.43;;;;;;;17.53;56.08;101224.66;144991;580;6002;-97
2022/01/07 13:39:51;;;;;;;11.55;8.73;;;;;;;17.58;55.64;101220.34;144992;565;6002;-90
2022/01/07 13:42:30;;;;;;;7.37;5.43;;;;;;;17.65;55.64;101216.03;144992;607;6002;-91
2022/01/07 13:45:03;;;;;;;12.85;8.80;;;;;;;17.70;55.25;101212.56;144992;563;6002;-90
2022/01/07 13:47:37;;;;;;;25.60;18.15;;;;;;;17.77;55.35;101217.00;144992;599;6002;-83
2022/01/07 13:50:28;;;;;;;51.17;30.20;;;;;;;17.86;55.17;101218.81;144992;650;6002;-89
2022/01/07 13:52:55;;;;;;;36.65;23.45;;;;;;;17.94;54.79;101221.53;144992;579;6004;-90
2022/01/07 13:55:35;;;;;;;24.05;15.68;;;;;;;17.98;54.93;101218.06;144992;610;6004;-90
2022/01/07 13:58:10;;;;;;;21.15;13.90;;;;;;;17.82;55.26;101224.06;144992;598;6004;-92
2022/01/07 14:00:41;;;;;;;15.18;10.05;;;;;;;17.74;55.68;101217.00;144991;581;6000;-86
2022/01/07 14:03:09;;;;;;;8.32;4.62;;;;;;;17.37;56.56;101221.91;144992;571;6002;-90
2022/01/07 14:05:39;;;;;;;7.65;4.90;;;;;;;17.08;57.29;101226.84;144992;594;6002;-90
2022/01/07 14:08:19;;;;;;;8.55;4.72;;;;;;;16.87;57.75;101232.72;144992;564;6002;-87
2022/01/07 14:10:47;;;;;;;6.28;4.45;;;;;;;16.69;58.04;101231.59;144991;624;6002;-87
2022/01/07 14:13:19;;;;;;;6.15;4.70;;;;;;;16.76;57.91;101242.16;144991;587;6002;-90
2022/01/07 14:15:48;;;;;;;6.10;4.60;;;;;;;16.64;57.55;101241.16;144992;571;6002;-85
2022/01/07 14:18:20;;;;;;;7.03;4.60;;;;;;;16.67;57.99;101241.19;144991;570;6002;-87
2022/01/07 14:20:52;;;;;;;7.12;4.35;;;;;;;16.68;58.07;101242.06;144992;573;6002;-86
2022/01/07 14:23:30;;;;;;;7.72;5.10;;;;;;;16.66;57.97;101246.41;144992;569;6002;-90
2022/01/07 14:26:10;;;;;;;8.40;4.70;;;;;;;16.63;57.36;101244.63;144992;577;6002;-90
2022/01/07 14:28:40;;;;;;;7.15;4.18;;;;;;;16.47;57.82;101240.06;144992;645;6002;-88
2022/01/07 14:31:07;;;;;;;7.62;4.70;;;;;;;16.49;57.49;101247.06;144992;713;6002;-86
2022/01/07 14:33:34;;;;;;;9.88;5.97;;;;;;;16.55;57.50;101251.50;144992;569;6002;-91
2022/01/07 14:36:02;;;;;;;9.05;6.12;;;;;;;16.56;57.10;101255.00;144992;691;6002;-87
2022/01/07 14:38:28;;;;;;;17.00;10.63;;;;;;;16.55;57.19;101253.25;144992;710;6002;-84
2022/01/07 14:40:55;;;;;;;18.90;13.55;;;;;;;16.41;59.59;101247.81;144992;564;6002;-84
2022/01/07 14:43:22;;;;;;;42.25;24.42;;;;;;;16.02;61.48;101256.81;144991;565;6002;-88
2022/01/07 14:45:49;;;;;;;26.37;17.48;;;;;;;16.08;58.80;101255.22;144991;578;6003;-85
2022/01/07 14:48:16;;;;;;;8.13;6.93;;;;;;;15.88;60.62;101265.34;144992;571;6002;-86
2022/01/07 14:50:43;;;;;;;10.70;6.60;;;;;;;16.05;59.52;101259.50;144992;727;6002;-87
2022/01/07 14:53:11;;;;;;;9.50;6.00;;;;;;;16.01;59.56;101269.03;144992;577;6002;-87
2022/01/07 14:55:38;;;;;;;9.00;5.90;;;;;;;15.80;62.96;101269.59;144992;575;6002;-85
2022/01/07 14:58:10;;;;;;;11.40;7.15;;;;;;;15.77;63.90;101270.41;144992;569;6002;-91
2022/01/07 15:00:41;;;;;;;16.50;6.75;;;;;;;15.33;63.95;101270.44;144992;591;6002;-88
2022/01/07 15:03:08;;;;;;;9.50;6.15;;;;;;;15.23;63.25;101269.38;144992;565;6002;-88
2022/01/07 15:05:35;;;;;;;12.70;7.37;;;;;;;15.39;61.53;101272.28;144992;580;6002;-88
2022/01/07 15:08:02;;;;;;;11.90;6.87;;;;;;;15.34;60.93;101264.34;144992;613;6002;-88
2022/01/07 15:10:31;;;;;;;11.25;7.20;;;;;;;15.34;58.82;101269.59;144992;589;6002;-88